createdAt,value
2018-04-22T00:00:15.555Z,7.62
2018-04-22T00:00:48.007Z,8.38
2018-04-22T00:01:19.659Z,9.13
2018-04-22T00:01:51.273Z,10.63
2018-04-22T00:02:22.903Z,8.65
2018-04-22T00:02:54.556Z,7.50
2018-04-22T00:03:26.194Z,6.70
2018-04-22T00:03:57.824Z,7.43
2018-04-22T00:04:29.468Z,7.47
2018-04-22T00:05:02.178Z,6.55
2018-04-22T00:05:33.833Z,6.62
2018-04-22T00:06:05.478Z,6.37
2018-04-22T00:06:37.122Z,6.75
2018-04-22T00:07:08.732Z,6.47
2018-04-22T00:07:40.379Z,6.60
2018-04-22T00:08:12.027Z,7.82
2018-04-22T00:08:43.652Z,7.07
2018-04-22T00:09:15.312Z,6.50
2018-04-22T00:09:46.967Z,6.20
2018-04-22T00:10:18.607Z,5.82
2018-04-22T00:10:50.239Z,7.57
2018-04-22T00:11:21.855Z,8.18
2018-04-22T00:11:53.500Z,10.90
2018-04-22T00:12:25.152Z,10.07
2018-04-22T00:12:56.801Z,8.35
2018-04-22T00:13:28.417Z,7.70
2018-04-22T00:14:00.059Z,10.68
2018-04-22T00:14:31.674Z,9.27
2018-04-22T00:15:03.352Z,11.77
2018-04-22T00:15:34.977Z,9.73
2018-04-22T00:16:12.092Z,8.45
2018-04-22T00:16:43.737Z,7.30
2018-04-22T00:17:15.384Z,8.35
2018-04-22T00:17:47.041Z,7.03
2018-04-22T00:18:18.683Z,6.07
2018-04-22T00:18:50.317Z,5.47
2018-04-22T00:19:21.971Z,6.10
2018-04-22T00:19:53.625Z,5.60
2018-04-22T00:20:25.256Z,5.40
2018-04-22T00:20:56.892Z,5.75
2018-04-22T00:21:28.529Z,5.12
2018-04-22T00:22:00.138Z,5.05
2018-04-22T00:22:31.757Z,5.28
2018-04-22T00:23:03.433Z,5.53
2018-04-22T00:23:35.073Z,5.85
2018-04-22T00:24:06.708Z,5.50
2018-04-22T00:24:38.341Z,6.12
2018-04-22T00:25:09.954Z,5.93
2018-04-22T00:25:41.596Z,6.00
2018-04-22T00:26:13.205Z,5.90
2018-04-22T00:26:44.823Z,5.03
2018-04-22T00:27:16.439Z,5.80
2018-04-22T00:27:48.064Z,5.68
2018-04-22T00:28:19.699Z,5.15
2018-04-22T00:28:51.324Z,5.80
2018-04-22T00:29:22.959Z,5.57
2018-04-22T00:29:54.570Z,5.55
2018-04-22T00:30:26.203Z,5.60
2018-04-22T00:30:57.818Z,5.80
2018-04-22T00:31:29.487Z,5.40
2018-04-22T00:32:01.104Z,5.72
2018-04-22T00:32:32.738Z,5.12
2018-04-22T00:33:04.370Z,4.60
2018-04-22T00:33:36.004Z,5.32
2018-04-22T00:34:07.642Z,4.95
2018-04-22T00:34:39.291Z,5.40
2018-04-22T00:35:11.964Z,5.07
2018-04-22T00:35:43.580Z,5.20
2018-04-22T00:36:15.223Z,5.03
2018-04-22T00:36:46.840Z,5.32
2018-04-22T00:37:18.466Z,5.20
2018-04-22T00:37:50.146Z,4.70
2018-04-22T00:38:22.794Z,5.43
2018-04-22T00:38:54.411Z,5.62
2018-04-22T00:39:26.044Z,4.90
2018-04-22T00:39:57.668Z,5.40
2018-04-22T00:40:29.274Z,5.55
2018-04-22T00:41:00.900Z,5.62
2018-04-22T00:41:32.524Z,6.22
2018-04-22T00:42:04.187Z,5.45
2018-04-22T00:42:35.840Z,5.15
2018-04-22T00:43:07.505Z,5.15
2018-04-22T00:43:39.151Z,5.18
2018-04-22T00:44:10.772Z,5.87
2018-04-22T00:44:42.398Z,5.07
2018-04-22T00:45:14.064Z,5.75
2018-04-22T00:45:45.716Z,4.95
2018-04-22T00:46:17.335Z,5.60
2018-04-22T00:46:48.994Z,5.82
2018-04-22T00:47:20.632Z,5.00
2018-04-22T00:47:52.257Z,5.18
2018-04-22T00:48:23.886Z,5.37
2018-04-22T00:48:55.517Z,5.40
2018-04-22T00:49:27.342Z,4.97
2018-04-22T00:49:58.965Z,5.05
2018-04-22T00:50:30.667Z,5.55
2018-04-22T00:51:02.307Z,5.65
2018-04-22T00:51:33.926Z,5.28
2018-04-22T00:52:05.554Z,5.18
2018-04-22T00:52:37.159Z,5.28
2018-04-22T00:53:08.821Z,5.18
2018-04-22T00:53:58.951Z,5.97
2018-04-22T00:54:30.525Z,5.50
2018-04-22T00:55:02.152Z,5.30
2018-04-22T00:55:33.779Z,5.20
2018-04-22T00:56:05.413Z,5.37
2018-04-22T00:56:37.053Z,5.50
2018-04-22T00:57:08.696Z,4.85
2018-04-22T00:57:40.463Z,5.90
2018-04-22T00:58:12.073Z,5.12
2018-04-22T00:58:43.703Z,5.53
2018-04-22T00:59:15.342Z,5.60
2018-04-22T00:59:46.991Z,5.70
2018-04-22T01:00:18.599Z,5.30
2018-04-22T01:00:50.242Z,5.10
2018-04-22T01:01:21.883Z,5.65
2018-04-22T01:01:53.499Z,5.40
2018-04-22T01:02:25.205Z,5.57
2018-04-22T01:02:56.819Z,5.55
2018-04-22T01:03:28.453Z,5.28
2018-04-22T01:04:00.087Z,5.75
2018-04-22T01:04:31.739Z,6.03
2018-04-22T01:05:03.386Z,5.35
2018-04-22T01:05:35.015Z,5.62
2018-04-22T01:06:06.631Z,5.85
2018-04-22T01:06:38.285Z,5.57
2018-04-22T01:07:09.938Z,5.82
2018-04-22T01:07:41.581Z,5.80
2018-04-22T01:08:13.235Z,5.43
2018-04-22T01:08:44.859Z,5.22
2018-04-22T01:09:16.497Z,5.25
2018-04-22T01:09:48.129Z,5.57
2018-04-22T01:10:19.753Z,5.72
2018-04-22T01:10:51.405Z,5.43
2018-04-22T01:11:23.065Z,5.55
2018-04-22T01:11:54.723Z,6.18
2018-04-22T01:12:26.355Z,5.60
2018-04-22T01:12:58.015Z,5.97
2018-04-22T01:13:29.655Z,5.87
2018-04-22T01:14:01.285Z,5.78
2018-04-22T01:14:32.901Z,5.15
2018-04-22T01:15:04.537Z,5.15
2018-04-22T01:15:36.190Z,5.78
2018-04-22T01:16:07.819Z,5.65
2018-04-22T01:16:39.448Z,5.32
2018-04-22T01:17:11.081Z,5.62
2018-04-22T01:17:42.697Z,5.30
2018-04-22T01:18:14.364Z,5.53
2018-04-22T01:18:45.979Z,5.55
2018-04-22T01:19:17.631Z,5.30
2018-04-22T01:19:49.309Z,6.55
2018-04-22T01:20:20.952Z,5.30
2018-04-22T01:20:52.589Z,5.75
2018-04-22T01:21:24.205Z,5.50
2018-04-22T01:21:55.830Z,5.40
2018-04-22T01:22:27.485Z,5.80
2018-04-22T01:22:59.108Z,5.53
2018-04-22T01:23:30.745Z,5.70
2018-04-22T01:24:02.379Z,6.00
2018-04-22T01:24:34.020Z,6.18
2018-04-22T01:25:05.679Z,5.80
2018-04-22T01:25:37.614Z,5.50
2018-04-22T01:26:09.315Z,6.25
2018-04-22T01:26:40.956Z,5.53
2018-04-22T01:27:12.590Z,5.70
2018-04-22T01:27:44.203Z,5.20
2018-04-22T01:28:15.846Z,5.40
2018-04-22T01:28:47.476Z,5.70
2018-04-22T01:29:19.076Z,5.68
2018-04-22T01:29:50.716Z,5.87
2018-04-22T01:30:22.368Z,5.70
2018-04-22T01:30:54.002Z,5.55
2018-04-22T01:31:25.628Z,5.53
2018-04-22T01:31:57.256Z,5.57
2018-04-22T01:32:28.885Z,5.80
2018-04-22T01:33:00.499Z,5.75
2018-04-22T01:33:32.136Z,5.50
2018-04-22T01:34:03.768Z,6.10
2018-04-22T01:34:35.372Z,6.65
2018-04-22T01:35:07.011Z,6.05
2018-04-22T01:35:38.677Z,5.90
2018-04-22T01:36:10.300Z,6.20
2018-04-22T01:36:41.911Z,5.90
2018-04-22T01:37:13.547Z,5.68
2018-04-22T01:37:45.175Z,5.65
2018-04-22T01:38:16.899Z,6.07
2018-04-22T01:38:48.536Z,6.32
2018-04-22T01:39:20.170Z,5.75
2018-04-22T01:39:51.808Z,5.80
2018-04-22T01:40:23.423Z,5.68
2018-04-22T01:40:55.328Z,5.93
2018-04-22T01:41:26.965Z,5.90
2018-04-22T01:41:58.598Z,5.90
2018-04-22T01:42:30.222Z,5.57
2018-04-22T01:43:01.885Z,5.60
2018-04-22T01:43:33.520Z,5.82
2018-04-22T01:44:05.166Z,5.60
2018-04-22T01:44:36.804Z,6.03
2018-04-22T01:45:08.443Z,5.97
2018-04-22T01:45:40.067Z,5.70
2018-04-22T01:46:11.704Z,6.35
2018-04-22T01:46:43.348Z,6.13
2018-04-22T01:47:14.999Z,6.22
2018-04-22T01:47:46.619Z,6.00
2018-04-22T01:48:18.245Z,6.53
2018-04-22T01:48:49.874Z,5.20
2018-04-22T01:49:21.480Z,6.15
2018-04-22T01:49:53.117Z,6.20
2018-04-22T01:50:24.738Z,5.70
2018-04-22T01:50:56.390Z,5.78
2018-04-22T01:51:28.035Z,5.93
2018-04-22T01:51:59.683Z,5.55
2018-04-22T01:52:31.294Z,6.07
2018-04-22T01:53:02.932Z,5.97
2018-04-22T01:53:34.558Z,6.10
2018-04-22T01:54:06.234Z,6.30
2018-04-22T01:54:38.651Z,6.05
2018-04-22T01:55:10.290Z,6.57
2018-04-22T01:55:41.902Z,6.28
2018-04-22T01:56:13.528Z,6.60
2018-04-22T01:56:45.140Z,5.60
2018-04-22T01:57:16.753Z,5.93
2018-04-22T01:57:48.392Z,6.00
2018-04-22T01:58:19.997Z,6.50
2018-04-22T01:58:51.641Z,6.22
2018-04-22T01:59:23.249Z,6.35
2018-04-22T01:59:54.897Z,7.20
2018-04-22T02:00:26.532Z,6.07
2018-04-22T02:00:58.157Z,5.93
2018-04-22T02:01:29.845Z,6.50
2018-04-22T02:02:01.501Z,5.68
2018-04-22T02:02:33.125Z,6.18
2018-04-22T02:03:04.771Z,6.15
2018-04-22T02:03:36.391Z,5.93
2018-04-22T02:04:07.999Z,6.05
2018-04-22T02:04:39.629Z,6.50
2018-04-22T02:05:11.258Z,6.45
2018-04-22T02:05:42.916Z,5.80
2018-04-22T02:06:14.612Z,6.57
2018-04-22T02:06:46.243Z,6.85
2018-04-22T02:07:17.885Z,6.53
2018-04-22T02:07:49.505Z,5.90
2018-04-22T02:08:21.122Z,6.55
2018-04-22T02:08:52.751Z,6.60
2018-04-22T02:09:24.391Z,6.32
2018-04-22T02:09:56.015Z,6.95
2018-04-22T02:10:27.637Z,6.47
2018-04-22T02:10:59.297Z,6.07
2018-04-22T02:11:30.925Z,5.97
2018-04-22T02:12:02.626Z,6.95
2018-04-22T02:12:34.718Z,6.72
2018-04-22T02:13:06.352Z,6.93
2018-04-22T02:13:37.993Z,6.25
2018-04-22T02:14:09.624Z,6.60
2018-04-22T02:14:41.246Z,6.53
2018-04-22T02:15:12.863Z,6.15
2018-04-22T02:15:45.114Z,6.45
2018-04-22T02:16:16.806Z,6.68
2018-04-22T02:16:48.452Z,6.18
2018-04-22T02:17:20.077Z,6.75
2018-04-22T02:17:51.705Z,6.43
2018-04-22T02:18:23.355Z,7.07
2018-04-22T02:18:55.000Z,6.80
2018-04-22T02:19:26.630Z,7.00
2018-04-22T02:19:58.332Z,6.45
2018-04-22T02:20:29.966Z,6.80
2018-04-22T02:21:01.588Z,6.15
2018-04-22T02:21:33.251Z,6.75
2018-04-22T02:22:04.896Z,6.80
2018-04-22T02:22:36.502Z,6.32
2018-04-22T02:23:08.120Z,7.10
2018-04-22T02:23:39.744Z,6.87
2018-04-22T02:24:11.354Z,7.03
2018-04-22T02:24:42.981Z,6.53
2018-04-22T02:25:14.666Z,7.00
2018-04-22T02:30:36.837Z,7.47
2018-04-22T02:31:08.440Z,6.82
2018-04-22T02:31:40.069Z,6.25
2018-04-22T02:32:11.699Z,6.43
2018-04-22T02:32:43.349Z,6.32
2018-04-22T02:33:14.951Z,6.62
2018-04-22T02:33:46.590Z,6.68
2018-04-22T02:34:18.223Z,6.82
2018-04-22T02:34:49.865Z,6.65
2018-04-22T02:35:21.499Z,6.60
2018-04-22T02:35:53.144Z,6.70
2018-04-22T02:36:24.779Z,8.10
2018-04-22T02:36:56.404Z,6.20
2018-04-22T02:37:28.035Z,7.00
2018-04-22T02:37:59.983Z,7.75
2018-04-22T02:38:31.608Z,6.70
2018-04-22T02:39:03.328Z,7.03
2018-04-22T02:39:34.991Z,6.62
2018-04-22T02:40:06.624Z,6.55
2018-04-22T02:40:38.756Z,6.15
2018-04-22T02:41:10.403Z,6.07
2018-04-22T02:41:42.012Z,6.57
2018-04-22T02:42:13.656Z,7.30
2018-04-22T02:42:45.312Z,7.12
2018-04-22T02:43:16.928Z,6.82
2018-04-22T02:43:48.551Z,6.97
2018-04-22T02:44:20.173Z,7.15
2018-04-22T02:44:51.779Z,7.35
2018-04-22T02:45:23.400Z,7.10
2018-04-22T02:45:55.048Z,6.65
2018-04-22T02:46:26.710Z,7.30
2018-04-22T02:46:58.355Z,6.95
2018-04-22T02:47:29.980Z,7.10
2018-04-22T02:48:01.588Z,7.03
2018-04-22T02:48:33.220Z,7.35
2018-04-22T02:49:04.839Z,7.00
2018-04-22T02:49:37.360Z,6.70
2018-04-22T02:50:08.979Z,7.32
2018-04-22T02:50:40.597Z,7.22
2018-04-22T02:51:12.263Z,6.80
2018-04-22T02:51:43.922Z,7.57
2018-04-22T02:52:15.543Z,7.45
2018-04-22T02:52:47.138Z,6.85
2018-04-22T02:53:18.806Z,7.57
2018-04-22T02:53:50.453Z,6.87
2018-04-22T02:54:22.074Z,7.18
2018-04-22T02:54:53.686Z,7.65
2018-04-22T02:55:25.315Z,7.12
2018-04-22T02:55:56.925Z,6.90
2018-04-22T02:56:28.557Z,6.97
2018-04-22T02:57:00.175Z,7.12
2018-04-22T02:57:31.811Z,7.30
2018-04-22T02:58:03.441Z,7.97
2018-04-22T02:58:35.041Z,7.40
2018-04-22T02:59:06.739Z,7.47
2018-04-22T02:59:38.384Z,7.28
2018-04-22T03:00:10.018Z,7.70
2018-04-22T03:00:41.626Z,6.90
2018-04-22T03:01:13.277Z,7.37
2018-04-22T03:01:44.901Z,7.05
2018-04-22T03:02:16.530Z,7.32
2018-04-22T03:02:48.148Z,7.18
2018-04-22T03:03:19.785Z,7.90
2018-04-22T03:03:51.404Z,7.30
2018-04-22T03:04:23.038Z,7.97
2018-04-22T03:04:54.656Z,8.68
2018-04-22T03:05:26.316Z,7.72
2018-04-22T03:05:57.971Z,7.85
2018-04-22T03:06:30.532Z,7.12
2018-04-22T03:07:02.154Z,7.55
2018-04-22T03:07:33.784Z,7.10
2018-04-22T03:08:05.440Z,7.07
2018-04-22T03:08:37.080Z,7.15
2018-04-22T03:09:08.706Z,7.22
2018-04-22T03:09:40.328Z,7.25
2018-04-22T03:10:11.962Z,7.22
2018-04-22T03:10:43.588Z,7.35
2018-04-22T03:11:15.215Z,6.82
2018-04-22T03:11:46.850Z,6.75
2018-04-22T03:12:18.500Z,7.20
2018-04-22T03:12:50.140Z,7.57
2018-04-22T03:13:21.758Z,7.28
2018-04-22T03:13:53.422Z,7.80
2018-04-22T03:14:25.059Z,7.35
2018-04-22T03:14:56.678Z,7.60
2018-04-22T03:15:28.292Z,7.18
2018-04-22T03:15:59.919Z,7.12
2018-04-22T03:16:31.544Z,7.68
2018-04-22T03:17:03.177Z,6.87
2018-04-22T03:17:34.912Z,7.30
2018-04-22T03:18:06.551Z,7.45
2018-04-22T03:18:38.175Z,7.05
2018-04-22T03:19:09.814Z,7.82
2018-04-22T03:19:41.477Z,7.70
2018-04-22T03:20:13.097Z,7.57
2018-04-22T03:20:44.954Z,7.62
2018-04-22T03:21:16.604Z,7.70
2018-04-22T03:21:48.233Z,8.05
2018-04-22T03:22:19.896Z,7.18
2018-04-22T03:22:51.509Z,8.05
2018-04-22T03:23:23.181Z,7.50
2018-04-22T03:23:54.811Z,7.10
2018-04-22T03:24:26.441Z,7.70
2018-04-22T03:24:58.088Z,7.80
2018-04-22T03:25:29.709Z,7.22
2018-04-22T03:26:01.311Z,7.03
2018-04-22T03:26:32.937Z,7.37
2018-04-22T03:27:04.569Z,7.40
2018-04-22T03:27:36.183Z,7.68
2018-04-22T03:28:07.803Z,7.12
2018-04-22T03:28:39.445Z,7.32
2018-04-22T03:29:11.051Z,6.95
2018-04-22T03:29:42.687Z,7.80
2018-04-22T03:30:14.303Z,7.00
2018-04-22T03:30:45.929Z,7.55
2018-04-22T03:31:17.553Z,7.87
2018-04-22T03:31:49.171Z,7.35
2018-04-22T03:42:10.821Z,8.27
2018-04-22T03:42:42.444Z,7.75
2018-04-22T03:43:14.054Z,7.43
2018-04-22T03:43:45.683Z,8.05
2018-04-22T03:44:17.292Z,8.48
2018-04-22T03:44:48.899Z,7.68
2018-04-22T03:45:20.508Z,8.25
2018-04-22T03:45:52.173Z,8.13
2018-04-22T03:46:23.808Z,7.68
2018-04-22T03:46:55.418Z,7.93
2018-04-22T03:47:27.034Z,7.82
2018-04-22T03:47:58.653Z,7.47
2018-04-22T03:48:30.278Z,7.68
2018-04-22T03:49:01.874Z,8.20
2018-04-22T03:49:33.492Z,7.53
2018-04-22T03:50:05.137Z,7.68
2018-04-22T03:50:36.761Z,8.00
2018-04-22T03:51:09.022Z,7.85
2018-04-22T03:51:40.637Z,7.78
2018-04-22T03:52:12.271Z,8.25
2018-04-22T03:52:43.902Z,7.68
2018-04-22T04:03:05.538Z,8.20
2018-04-22T04:03:37.150Z,8.13
2018-04-22T04:04:08.765Z,7.18
2018-04-22T04:04:40.385Z,8.02
2018-04-22T04:05:12.025Z,8.00
2018-04-22T04:05:43.659Z,8.23
2018-04-22T04:06:15.319Z,7.93
2018-04-22T04:16:36.982Z,7.90
2018-04-22T04:17:08.562Z,7.40
2018-04-22T04:17:40.223Z,8.40
2018-04-22T04:20:00.988Z,8.10
2018-04-22T04:20:51.100Z,7.57
2018-04-22T04:21:42.302Z,8.20
2018-04-22T04:22:32.563Z,7.85
2018-04-22T04:23:04.193Z,7.95
2018-04-22T04:24:03.709Z,8.05
2018-04-22T04:25:07.483Z,7.62
2018-04-22T04:26:09.097Z,8.13
2018-04-22T04:28:01.280Z,8.32
2018-04-22T04:28:32.896Z,8.15
2018-04-22T04:29:04.525Z,8.00
2018-04-22T04:29:36.158Z,8.23
2018-04-22T04:30:07.825Z,8.45
2018-04-22T04:30:39.459Z,7.95
2018-04-22T04:31:11.050Z,8.05
2018-04-22T04:31:42.686Z,7.45
2018-04-22T04:32:14.303Z,8.15
2018-04-22T04:32:45.917Z,8.18
2018-04-22T04:33:17.537Z,7.85
2018-04-22T04:33:49.188Z,7.80
2018-04-22T04:34:20.814Z,7.40
2018-04-22T04:34:52.439Z,8.38
2018-04-22T04:35:24.059Z,8.25
2018-04-22T04:35:55.688Z,8.07
2018-04-22T04:36:27.308Z,8.15
2018-04-22T04:36:58.941Z,7.90
2018-04-22T04:37:30.584Z,7.57
2018-04-22T04:47:52.269Z,8.18
2018-04-22T04:48:23.896Z,7.93
2018-04-22T04:48:55.548Z,9.10
2018-04-22T04:49:27.164Z,7.75
2018-04-22T04:49:58.793Z,7.62
2018-04-22T04:50:30.415Z,7.43
2018-04-22T04:51:02.051Z,7.50
2018-04-22T04:51:33.681Z,7.70
2018-04-22T04:52:05.304Z,8.00
2018-04-22T04:52:36.947Z,8.15
2018-04-22T04:53:08.583Z,7.80
2018-04-22T04:53:40.194Z,8.48
2018-04-22T04:54:11.816Z,8.15
2018-04-22T04:54:43.459Z,8.32
2018-04-22T04:55:15.114Z,7.62
2018-04-22T04:55:46.738Z,7.50
2018-04-22T04:56:18.365Z,8.45
2018-04-22T04:56:49.987Z,7.47
2018-04-22T04:57:21.641Z,8.75
2018-04-22T04:57:53.271Z,7.95
2018-04-22T04:58:24.884Z,8.30
2018-04-22T04:58:56.518Z,7.72
2018-04-22T04:59:28.181Z,8.07
2018-04-22T04:59:59.860Z,7.85
2018-04-22T05:00:31.495Z,7.03
2018-04-22T05:01:03.120Z,7.45
2018-04-22T05:01:34.756Z,7.97
2018-04-22T05:02:06.388Z,8.13
2018-04-22T05:02:38.022Z,8.90
2018-04-22T05:03:09.643Z,7.80
2018-04-22T05:03:41.296Z,8.02
2018-04-22T05:04:12.944Z,7.78
2018-04-22T05:04:44.567Z,8.45
2018-04-22T05:05:16.190Z,8.40
2018-04-22T05:05:47.812Z,7.95
2018-04-22T05:06:19.450Z,8.52
2018-04-22T05:06:51.385Z,8.98
2018-04-22T05:07:23.006Z,7.20
2018-04-22T05:07:54.631Z,8.05
2018-04-22T05:08:26.268Z,7.65
2018-04-22T05:08:57.909Z,8.48
2018-04-22T05:09:29.541Z,8.27
2018-04-22T05:10:01.153Z,8.60
2018-04-22T05:10:32.798Z,8.68
2018-04-22T05:11:04.432Z,7.55
2018-04-22T05:11:36.059Z,7.60
2018-04-22T05:12:07.680Z,7.60
2018-04-22T05:12:39.323Z,7.47
2018-04-22T05:13:10.948Z,7.57
2018-04-22T05:13:42.599Z,7.80
2018-04-22T05:14:15.202Z,8.02
2018-04-22T05:14:46.898Z,8.30
2018-04-22T05:15:18.540Z,7.65
2018-04-22T05:15:50.144Z,7.78
2018-04-22T05:16:21.792Z,8.20
2018-04-22T05:16:53.424Z,7.50
2018-04-22T05:17:25.072Z,8.02
2018-04-22T05:17:56.688Z,8.00
2018-04-22T05:18:28.320Z,7.80
2018-04-22T05:18:59.972Z,7.18
2018-04-22T05:19:31.600Z,8.18
2018-04-22T05:20:03.243Z,7.87
2018-04-22T05:20:34.864Z,7.57
2018-04-22T05:21:06.478Z,7.68
2018-04-22T05:21:38.100Z,7.57
2018-04-22T05:22:09.713Z,7.70
2018-04-22T05:22:41.377Z,7.55
2018-04-22T05:23:13.000Z,7.70
2018-04-22T05:23:44.618Z,8.23
2018-04-22T05:24:16.282Z,7.43
2018-04-22T05:24:47.934Z,8.13
2018-04-22T05:25:19.559Z,7.90
2018-04-22T05:35:41.231Z,7.25
2018-04-22T05:36:12.854Z,7.65
2018-04-22T05:36:44.464Z,7.87
2018-04-22T05:37:16.096Z,7.53
2018-04-22T05:37:47.758Z,8.07
2018-04-22T05:38:19.370Z,7.45
2018-04-22T05:38:50.996Z,7.80
2018-04-22T05:39:22.614Z,7.15
2018-04-22T05:39:54.252Z,8.02
2018-04-22T05:40:25.876Z,7.85
2018-04-22T05:40:57.558Z,7.10
2018-04-22T05:41:29.182Z,7.30
2018-04-22T05:42:00.812Z,7.62
2018-04-22T05:42:32.428Z,6.82
2018-04-22T05:43:04.072Z,8.13
2018-04-22T05:43:35.710Z,7.32
2018-04-22T05:44:07.344Z,7.55
2018-04-22T05:44:38.939Z,7.57
2018-04-22T05:45:10.572Z,7.53
2018-04-22T05:45:42.199Z,7.37
2018-04-22T05:46:13.837Z,7.37
2018-04-22T05:46:45.450Z,7.60
2018-04-22T05:47:17.098Z,6.90
2018-04-22T05:47:48.728Z,7.97
2018-04-22T05:48:20.361Z,8.00
2018-04-22T05:48:52.025Z,7.35
2018-04-22T05:49:23.674Z,7.35
2018-04-22T05:49:55.308Z,7.30
2018-04-22T05:50:26.942Z,7.53
2018-04-22T05:50:58.582Z,6.90
2018-04-22T05:51:30.240Z,6.87
2018-04-22T05:52:01.856Z,7.70
2018-04-22T05:52:33.476Z,6.72
2018-04-22T05:53:05.113Z,7.78
2018-04-22T05:53:36.754Z,7.25
2018-04-22T05:54:08.388Z,8.20
2018-04-22T05:54:40.019Z,7.75
2018-04-22T05:55:11.657Z,7.20
2018-04-22T05:55:43.265Z,7.53
2018-04-22T05:56:14.870Z,6.90
2018-04-22T05:56:46.519Z,6.97
2018-04-22T05:57:18.131Z,7.32
2018-04-22T05:57:50.454Z,7.28
2018-04-22T05:58:22.079Z,6.93
2018-04-22T05:58:53.703Z,6.87
2018-04-22T05:59:25.330Z,7.37
2018-04-22T05:59:56.958Z,7.43
2018-04-22T06:00:28.620Z,7.35
2018-04-22T06:01:00.284Z,7.12
2018-04-22T06:01:31.899Z,7.25
2018-04-22T06:02:03.585Z,8.18
2018-04-22T06:02:35.228Z,6.82
2018-04-22T06:03:06.868Z,6.93
2018-04-22T06:03:38.486Z,7.28
2018-04-22T06:04:10.092Z,7.18
2018-04-22T06:04:41.723Z,7.57
2018-04-22T06:05:14.234Z,7.03
2018-04-22T06:05:45.858Z,7.43
2018-04-22T06:06:17.492Z,6.95
2018-04-22T06:06:49.139Z,7.57
2018-04-22T06:07:20.778Z,6.70
2018-04-22T06:07:52.385Z,7.15
2018-04-22T06:08:23.996Z,7.37
2018-04-22T06:08:55.627Z,7.05
2018-04-22T06:09:27.252Z,7.07
2018-04-22T06:09:58.878Z,6.87
2018-04-22T06:10:30.510Z,6.53
2018-04-22T06:11:02.133Z,7.05
2018-04-22T06:11:33.740Z,8.30
2018-04-22T06:12:05.414Z,6.97
2018-04-22T06:12:37.062Z,7.18
2018-04-22T06:13:08.711Z,6.80
2018-04-22T06:13:40.349Z,7.00
2018-04-22T06:14:11.980Z,6.87
2018-04-22T06:14:43.611Z,6.85
2018-04-22T06:15:15.217Z,7.43
2018-04-22T06:15:46.873Z,8.00
2018-04-22T06:16:18.525Z,6.70
2018-04-22T06:16:50.160Z,6.70
2018-04-22T06:17:21.797Z,6.70
2018-04-22T06:17:53.434Z,7.30
2018-04-22T06:18:25.510Z,7.32
2018-04-22T06:18:57.146Z,7.07
2018-04-22T06:19:28.810Z,7.45
2018-04-22T06:20:00.432Z,7.00
2018-04-22T06:20:32.096Z,7.95
2018-04-22T06:21:03.748Z,7.18
2018-04-22T06:21:35.370Z,7.32
2018-04-22T06:22:06.987Z,7.03
2018-04-22T06:22:38.633Z,7.70
2018-04-22T06:23:10.257Z,7.10
2018-04-22T06:23:41.872Z,7.07
2018-04-22T06:24:13.530Z,7.30
2018-04-22T06:24:45.160Z,7.12
2018-04-22T06:25:16.850Z,7.70
2018-04-22T06:25:48.502Z,7.78
2018-04-22T06:26:20.124Z,7.37
2018-04-22T06:26:51.741Z,7.10
2018-04-22T06:27:23.378Z,7.40
2018-04-22T06:27:55.024Z,7.07
2018-04-22T06:28:26.660Z,7.55
2018-04-22T06:38:50.334Z,7.00
2018-04-22T06:39:21.926Z,7.80
2018-04-22T06:39:53.557Z,7.20
2018-04-22T06:40:25.186Z,7.28
2018-04-22T06:40:56.797Z,7.72
2018-04-22T06:41:28.414Z,7.70
2018-04-22T06:42:00.039Z,7.60
2018-04-22T06:42:31.664Z,7.57
2018-04-22T06:43:03.306Z,7.70
2018-04-22T06:43:35.875Z,7.65
2018-04-22T06:44:07.503Z,7.70
2018-04-22T06:44:39.523Z,7.90
2018-04-22T06:45:11.151Z,7.87
2018-04-22T06:45:42.763Z,7.20
2018-04-22T06:46:14.367Z,7.00
2018-04-22T06:46:46.001Z,7.37
2018-04-22T06:47:17.610Z,6.93
2018-04-22T06:47:49.231Z,7.90
2018-04-22T06:48:20.851Z,7.65
2018-04-22T06:48:52.458Z,7.00
2018-04-22T06:49:24.102Z,7.22
2018-04-22T06:49:55.732Z,7.30
2018-04-22T06:50:27.340Z,7.35
2018-04-22T06:50:58.954Z,7.37
2018-04-22T06:51:30.603Z,7.25
2018-04-22T06:52:02.230Z,7.55
2018-04-22T06:52:33.892Z,7.68
2018-04-22T06:53:05.513Z,7.62
2018-04-22T06:53:37.132Z,8.05
2018-04-22T06:54:08.751Z,7.25
2018-04-22T06:54:40.387Z,7.30
2018-04-22T06:55:12.012Z,7.68
2018-04-22T06:55:43.621Z,7.50
2018-04-22T06:56:15.262Z,7.20
2018-04-22T06:56:47.796Z,7.85
2018-04-22T06:57:19.463Z,7.32
2018-04-22T06:57:51.094Z,7.62
2018-04-22T06:58:22.716Z,7.15
2018-04-22T06:58:54.365Z,6.90
2018-04-22T06:59:25.990Z,7.70
2018-04-22T06:59:57.612Z,8.03
2018-04-22T07:00:29.223Z,7.70
2018-04-22T07:01:00.871Z,8.05
2018-04-22T07:01:32.510Z,7.25
2018-04-22T07:02:04.136Z,8.10
2018-04-22T07:02:35.753Z,7.05
2018-04-22T07:03:07.388Z,6.95
2018-04-22T07:03:39.070Z,7.85
2018-04-22T07:04:11.122Z,8.05
2018-04-22T07:04:42.732Z,8.80
2018-04-22T07:05:14.368Z,8.07
2018-04-22T07:05:45.996Z,7.82
2018-04-22T07:06:17.668Z,7.20
2018-04-22T07:06:49.318Z,7.20
2018-04-22T07:07:20.949Z,7.85
2018-04-22T07:17:42.623Z,7.22
2018-04-22T07:18:14.264Z,7.82
2018-04-22T07:18:45.900Z,7.10
2018-04-22T07:19:18.160Z,7.57
2018-04-22T07:19:49.799Z,7.75
2018-04-22T07:20:21.479Z,7.43
2018-04-22T07:20:53.110Z,7.78
2018-04-22T07:21:24.726Z,7.80
2018-04-22T07:21:56.340Z,7.18
2018-04-22T07:22:28.017Z,8.13
2018-04-22T07:22:59.656Z,8.00
2018-04-22T07:23:31.276Z,7.50
2018-04-22T07:24:03.205Z,7.57
2018-04-22T07:24:35.154Z,8.10
2018-04-22T07:25:06.780Z,7.75
2018-04-22T07:25:38.404Z,7.65
2018-04-22T07:26:10.047Z,7.93
2018-04-22T07:26:41.664Z,7.82
2018-04-22T07:27:13.292Z,7.80
2018-04-22T07:27:44.940Z,7.82
2018-04-22T07:28:16.591Z,7.45
2018-04-22T07:28:48.210Z,7.68
2018-04-22T07:29:19.907Z,7.90
2018-04-22T07:29:51.502Z,8.07
2018-04-22T07:30:23.131Z,7.93
2018-04-22T07:30:54.762Z,7.45
2018-04-22T07:31:26.374Z,7.93
2018-04-22T07:31:58.011Z,8.30
2018-04-22T07:32:29.648Z,8.13
2018-04-22T07:33:01.266Z,8.20
2018-04-22T07:33:32.898Z,7.68
2018-04-22T07:34:04.553Z,8.25
2018-04-22T07:34:36.508Z,7.65
2018-04-22T07:35:08.228Z,7.68
2018-04-22T07:35:39.893Z,7.97
2018-04-22T07:36:11.530Z,8.05
2018-04-22T07:36:43.182Z,7.15
2018-04-22T07:37:14.815Z,7.78
2018-04-22T07:37:46.449Z,7.80
2018-04-22T07:38:18.089Z,8.30
2018-04-22T07:38:49.737Z,7.60
2018-04-22T07:39:21.355Z,7.90
2018-04-22T07:39:52.960Z,8.00
2018-04-22T07:40:24.572Z,7.55
2018-04-22T07:40:56.193Z,8.88
2018-04-22T07:41:27.810Z,7.65
2018-04-22T07:41:59.422Z,7.30
2018-04-22T07:52:21.110Z,8.65
2018-04-22T07:52:52.795Z,8.70
2018-04-22T07:53:24.480Z,8.25
2018-04-22T07:53:56.078Z,8.20
2018-04-22T07:54:27.706Z,8.15
2018-04-22T07:54:59.337Z,8.18
2018-04-22T07:55:30.982Z,8.48
2018-04-22T07:56:02.618Z,7.82
2018-04-22T07:56:34.242Z,8.68
2018-04-22T07:57:05.872Z,8.48
2018-04-22T07:57:37.527Z,8.73
2018-04-22T07:58:09.152Z,8.82
2018-04-22T07:58:40.797Z,7.97
2018-04-22T07:59:12.436Z,8.55
2018-04-22T07:59:44.072Z,8.40
2018-04-22T08:00:15.712Z,8.00
2018-04-22T08:00:47.336Z,8.50
2018-04-22T08:01:18.963Z,8.57
2018-04-22T08:01:50.597Z,8.48
2018-04-22T08:02:22.216Z,8.63
2018-04-22T08:02:53.843Z,9.35
2018-04-22T08:03:25.456Z,8.07
2018-04-22T08:03:57.070Z,7.95
2018-04-22T08:04:28.712Z,8.63
2018-04-22T08:05:00.347Z,8.48
2018-04-22T08:05:31.946Z,8.48
2018-04-22T08:06:03.616Z,9.03
2018-04-22T08:06:35.240Z,8.43
2018-04-22T08:07:06.868Z,8.23
2018-04-22T08:07:38.484Z,8.50
2018-04-22T08:08:10.112Z,9.45
2018-04-22T08:08:41.750Z,9.15
2018-04-22T08:09:13.390Z,8.85
2018-04-22T08:09:45.048Z,8.70
2018-04-22T08:10:16.803Z,8.20
2018-04-22T08:10:48.393Z,9.32
2018-04-22T08:11:20.014Z,8.75
2018-04-22T08:11:51.628Z,8.93
2018-04-22T08:12:23.331Z,8.95
2018-04-22T08:12:54.982Z,8.48
2018-04-22T08:13:26.620Z,8.18
2018-04-22T08:13:58.252Z,9.27
2018-04-22T08:14:29.908Z,9.25
2018-04-22T08:15:01.556Z,8.93
2018-04-22T08:15:33.221Z,8.77
2018-04-22T08:16:04.864Z,7.97
2018-04-22T08:16:36.496Z,8.70
2018-04-22T08:17:08.130Z,9.10
2018-04-22T08:17:39.768Z,9.17
2018-04-22T08:18:11.397Z,9.38
2018-04-22T08:18:43.026Z,8.90
2018-04-22T08:19:14.656Z,8.57
2018-04-22T08:19:46.294Z,8.90
2018-04-22T08:20:17.958Z,8.32
2018-04-22T08:21:04.535Z,9.45
2018-04-22T08:21:36.167Z,9.02
2018-04-22T08:22:07.792Z,9.07
2018-04-22T08:22:39.416Z,8.93
2018-04-22T08:23:11.042Z,9.32
2018-04-22T08:23:42.686Z,9.10
2018-04-22T08:24:14.318Z,9.07
2018-04-22T08:24:45.951Z,10.07
2018-04-22T08:25:17.603Z,9.27
2018-04-22T08:25:49.211Z,9.00
2018-04-22T08:26:20.847Z,9.23
2018-04-22T08:26:52.464Z,8.93
2018-04-22T08:27:24.096Z,8.70
2018-04-22T08:27:55.710Z,9.65
2018-04-22T08:28:27.355Z,8.90
2018-04-22T08:28:58.988Z,9.27
2018-04-22T08:29:30.646Z,8.68
2018-04-22T08:30:02.324Z,8.65
2018-04-22T08:30:33.978Z,9.47
2018-04-22T08:31:05.616Z,10.60